createdAt,value
2018-07-17T00:00:37.609Z,5.87
2018-07-17T00:03:08.284Z,3.60
2018-07-17T00:05:38.920Z,4.13
2018-07-17T00:08:09.597Z,6.93
2018-07-17T00:10:40.271Z,4.90
2018-07-17T00:13:10.935Z,5.10
2018-07-17T00:15:41.570Z,3.20
2018-07-17T00:18:12.255Z,4.90
2018-07-17T00:20:42.905Z,3.90
2018-07-17T00:23:13.590Z,4.60
2018-07-17T00:25:44.245Z,4.23
2018-07-17T00:28:14.859Z,7.93
2018-07-17T00:30:45.543Z,4.80
2018-07-17T00:33:16.217Z,5.37
2018-07-17T00:35:46.923Z,4.63
2018-07-17T00:38:17.613Z,5.17
2018-07-17T00:40:48.300Z,4.07
2018-07-17T00:43:19.005Z,4.20
2018-07-17T00:45:49.760Z,5.17
2018-07-17T00:48:20.423Z,4.83
2018-07-17T00:50:51.074Z,5.20
2018-07-17T00:53:21.766Z,3.77
2018-07-17T00:55:52.443Z,4.30
2018-07-17T00:58:23.120Z,4.03
2018-07-17T01:00:52.772Z,6.20
2018-07-17T01:03:28.662Z,4.53
2018-07-17T01:06:04.620Z,3.53
2018-07-17T01:08:40.594Z,3.90
2018-07-17T01:11:16.467Z,5.07
2018-07-17T01:13:55.410Z,4.00
2018-07-17T01:16:26.114Z,3.87
2018-07-17T01:18:56.840Z,3.40
2018-07-17T01:21:27.553Z,4.57
2018-07-17T01:23:58.794Z,3.17
2018-07-17T01:26:29.493Z,3.20
2018-07-17T01:29:00.128Z,3.53
2018-07-17T01:31:30.906Z,2.80
2018-07-17T01:34:01.552Z,4.63
2018-07-17T01:36:32.534Z,2.93
2018-07-17T01:39:03.233Z,3.77
2018-07-17T01:41:34.061Z,3.57
2018-07-17T01:44:04.744Z,7.73
2018-07-17T01:47:06.273Z,4.47
2018-07-17T01:49:36.915Z,3.80
2018-07-17T01:52:07.668Z,3.40
2018-07-17T01:54:38.306Z,4.30
2018-07-17T01:57:08.853Z,2.83
2018-07-17T01:59:39.731Z,3.43
2018-07-17T02:02:10.621Z,3.40
2018-07-17T02:04:41.402Z,3.20
2018-07-17T02:07:12.234Z,3.90
2018-07-17T02:09:42.888Z,3.30
2018-07-17T02:12:13.538Z,3.87
2018-07-17T02:14:44.183Z,3.70
2018-07-17T02:17:14.868Z,3.63
2018-07-17T02:19:45.552Z,5.10
2018-07-17T02:22:16.278Z,4.80
2018-07-17T02:24:47.043Z,3.67
2018-07-17T02:27:18.468Z,3.03
2018-07-17T02:29:49.182Z,5.00
2018-07-17T02:32:19.821Z,3.40
2018-07-17T02:34:50.595Z,3.47
2018-07-17T02:37:21.218Z,3.83
2018-07-17T02:39:51.859Z,4.97
2018-07-17T02:42:22.530Z,3.73
2018-07-17T02:44:53.167Z,3.57
2018-07-17T02:47:23.817Z,3.57
2018-07-17T02:49:54.474Z,3.83
2018-07-17T02:52:25.155Z,4.70
2018-07-17T02:54:55.764Z,5.37
2018-07-17T02:57:26.400Z,4.57
2018-07-17T02:59:57.029Z,4.07
2018-07-17T03:02:27.646Z,4.57
2018-07-17T03:04:58.307Z,4.73
2018-07-17T03:07:28.966Z,3.87
2018-07-17T03:09:59.666Z,3.53
2018-07-17T03:12:30.315Z,5.17
2018-07-17T03:15:00.941Z,4.43
2018-07-17T03:17:31.592Z,3.90
2018-07-17T03:20:02.296Z,3.50
2018-07-17T03:22:32.952Z,4.03
2018-07-17T03:25:03.654Z,4.00
2018-07-17T03:27:34.305Z,3.53
2018-07-17T03:30:05.657Z,3.73
2018-07-17T03:32:36.357Z,3.97
2018-07-17T03:35:07.186Z,3.50
2018-07-17T03:37:37.901Z,4.27
2018-07-17T03:40:08.634Z,3.40
2018-07-17T03:42:39.385Z,3.50
2018-07-17T03:45:10.077Z,3.77
2018-07-17T03:47:40.756Z,3.83
2018-07-17T03:50:11.409Z,3.57
2018-07-17T03:52:42.148Z,4.93
2018-07-17T03:55:12.767Z,3.40
2018-07-17T03:57:43.464Z,7.70
2018-07-17T04:00:14.115Z,4.53
2018-07-17T04:02:44.827Z,4.07
2018-07-17T04:05:15.477Z,3.97
2018-07-17T04:07:46.257Z,5.63
2018-07-17T04:10:16.923Z,3.57
2018-07-17T04:12:47.632Z,5.37
2018-07-17T04:15:18.393Z,3.77
2018-07-17T04:17:49.083Z,4.17
2018-07-17T04:20:19.735Z,4.67
2018-07-17T04:22:51.175Z,7.67
2018-07-17T04:25:21.944Z,6.60
2018-07-17T04:27:52.561Z,4.47
2018-07-17T04:30:23.263Z,4.20
2018-07-17T04:32:53.935Z,4.00
2018-07-17T04:35:24.742Z,3.80
2018-07-17T04:37:55.424Z,4.00
2018-07-17T04:40:26.135Z,4.17
2018-07-17T04:42:56.790Z,4.83
2018-07-17T04:45:27.444Z,4.97
2018-07-17T04:47:58.138Z,7.30
2018-07-17T04:50:28.832Z,6.17
2018-07-17T04:52:59.489Z,4.93
2018-07-17T04:55:30.179Z,6.47
2018-07-17T04:58:00.804Z,4.87
2018-07-17T05:00:31.553Z,6.70
2018-07-17T05:03:02.191Z,4.10
2018-07-17T05:05:32.899Z,5.23
2018-07-17T05:08:03.554Z,5.67
2018-07-17T05:10:34.231Z,3.70
2018-07-17T05:13:05.084Z,6.40
2018-07-17T05:15:35.722Z,5.07
2018-07-17T05:18:06.458Z,4.40
2018-07-17T05:20:37.166Z,6.87
2018-07-17T05:23:07.828Z,3.73
2018-07-17T05:25:38.535Z,3.80
2018-07-17T05:28:09.315Z,3.70
2018-07-17T05:30:40.285Z,3.40
2018-07-17T05:33:11.116Z,4.90
2018-07-17T05:35:41.880Z,5.77
2018-07-17T05:38:12.603Z,5.83
2018-07-17T05:40:43.403Z,4.27
2018-07-17T05:43:14.168Z,20.10
2018-07-17T05:45:45.008Z,16.70
2018-07-17T05:48:15.777Z,9.63
2018-07-17T05:50:46.565Z,6.47
2018-07-17T05:53:17.300Z,6.33
2018-07-17T05:55:48.236Z,6.10
2018-07-17T05:58:19.023Z,5.37
2018-07-17T06:00:49.848Z,5.73
2018-07-17T06:03:20.731Z,8.03
2018-07-17T06:05:51.604Z,10.87
2018-07-17T06:08:22.283Z,6.10
2018-07-17T06:10:53.040Z,8.30
2018-07-17T06:13:23.718Z,8.03
2018-07-17T06:15:54.510Z,8.47
2018-07-17T06:18:25.139Z,7.37
2018-07-17T06:20:55.835Z,9.23
2018-07-17T06:23:26.556Z,10.73
2018-07-17T06:25:57.285Z,13.13
2018-07-17T06:28:28.049Z,9.53
2018-07-17T06:30:58.759Z,10.23
2018-07-17T06:33:29.434Z,9.03
2018-07-17T06:36:00.080Z,9.47
2018-07-17T06:38:30.790Z,9.53
2018-07-17T06:41:01.550Z,9.80
2018-07-17T06:43:32.256Z,11.37
2018-07-17T06:46:02.963Z,12.97
2018-07-17T06:48:33.732Z,10.20
2018-07-17T06:51:04.490Z,10.50
2018-07-17T06:53:35.405Z,10.63
2018-07-17T06:56:06.235Z,10.20
2018-07-17T06:58:36.895Z,14.13
2018-07-17T07:01:07.594Z,11.33
2018-07-17T07:03:38.222Z,8.80
2018-07-17T07:06:08.951Z,10.97
2018-07-17T07:08:39.605Z,10.03
2018-07-17T07:11:10.407Z,9.33
2018-07-17T07:13:41.059Z,11.40
2018-07-17T07:16:11.713Z,9.57
2018-07-17T07:18:42.397Z,13.03
2018-07-17T07:21:13.140Z,9.00
2018-07-17T07:23:43.807Z,12.73
2018-07-17T07:26:14.633Z,10.93
2018-07-17T07:28:45.394Z,8.97
2018-07-17T07:31:16.124Z,10.40
2018-07-17T07:33:46.993Z,9.20
2018-07-17T07:36:17.737Z,8.83
2018-07-17T07:38:48.571Z,7.93
2018-07-17T07:41:19.286Z,9.23
2018-07-17T07:43:49.970Z,8.60
2018-07-17T07:46:21.657Z,10.30
2018-07-17T07:48:52.335Z,9.50
2018-07-17T07:51:23.016Z,7.60
2018-07-17T07:53:53.733Z,8.10
2018-07-17T07:56:24.532Z,9.80
2018-07-17T07:58:55.221Z,7.70
2018-07-17T08:01:25.879Z,8.33
2018-07-17T08:03:56.671Z,9.90
2018-07-17T08:06:27.321Z,10.70
2018-07-17T08:08:58.059Z,7.73
2018-07-17T08:11:28.894Z,6.97
2018-07-17T08:13:59.630Z,7.33
2018-07-17T08:16:30.838Z,10.37
2018-07-17T08:19:01.565Z,8.30
2018-07-17T08:21:32.372Z,8.13
2018-07-17T08:24:03.200Z,7.03
2018-07-17T08:26:33.985Z,8.30
2018-07-17T08:29:04.687Z,9.80
2018-07-17T08:31:35.536Z,7.93
2018-07-17T08:34:06.280Z,7.37
2018-07-17T08:36:36.987Z,7.17
2018-07-17T08:39:09.527Z,8.40
2018-07-17T08:41:40.198Z,6.97
2018-07-17T08:44:10.923Z,7.53
2018-07-17T08:46:41.610Z,6.73
2018-07-17T08:49:12.522Z,7.53
2018-07-17T08:51:43.084Z,6.07
2018-07-17T08:54:13.795Z,11.83
2018-07-17T08:56:44.427Z,5.07
2018-07-17T08:59:15.063Z,7.00
2018-07-17T09:01:45.739Z,7.13
2018-07-17T09:04:16.718Z,5.93
2018-07-17T09:06:47.482Z,7.83
2018-07-17T09:09:18.225Z,9.50
2018-07-17T09:11:49.083Z,7.87
2018-07-17T09:14:19.768Z,8.03
2018-07-17T09:16:50.580Z,5.50
2018-07-17T09:19:21.252Z,9.13
2018-07-17T09:21:52.080Z,6.73
2018-07-17T09:24:22.756Z,8.00
2018-07-17T09:26:53.663Z,6.77
2018-07-17T09:29:24.004Z,7.63
2018-07-17T09:31:54.548Z,6.07
2018-07-17T09:34:25.324Z,8.47
2018-07-17T09:36:56.090Z,6.90
2018-07-17T09:39:26.898Z,6.57
2018-07-17T09:41:57.605Z,7.37
2018-07-17T09:44:28.330Z,7.83
2018-07-17T09:46:59.076Z,10.10
2018-07-17T09:49:29.776Z,7.67
2018-07-17T09:52:00.079Z,8.00
2018-07-17T09:54:30.641Z,8.67
2018-07-17T09:57:01.319Z,6.90
2018-07-17T09:59:32.015Z,8.30
2018-07-17T10:02:07.908Z,8.03
2018-07-17T10:04:38.641Z,8.97
2018-07-17T10:07:09.314Z,14.30
2018-07-17T10:09:40.042Z,10.57
2018-07-17T10:12:10.677Z,9.17
2018-07-17T10:14:41.545Z,7.57
2018-07-17T10:17:12.337Z,8.30
2018-07-17T10:19:43.033Z,11.17
2018-07-17T10:22:13.727Z,8.53
2018-07-17T10:24:44.431Z,8.83
2018-07-17T10:27:15.205Z,9.33
2018-07-17T10:29:45.932Z,8.70
2018-07-17T10:32:16.585Z,7.40
2018-07-17T10:34:47.332Z,10.73
2018-07-17T10:37:18.033Z,8.00
2018-07-17T10:39:48.881Z,8.60
2018-07-17T10:42:19.752Z,11.07
2018-07-17T10:44:50.416Z,9.30
2018-07-17T10:47:21.068Z,8.07
2018-07-17T10:49:51.737Z,8.93
2018-07-17T10:52:22.462Z,9.37
2018-07-17T10:54:53.445Z,7.37
2018-07-17T10:57:24.134Z,13.63
2018-07-17T10:59:54.939Z,7.60
2018-07-17T11:02:25.593Z,9.17
2018-07-17T11:04:56.332Z,7.67
2018-07-17T11:07:27.021Z,7.30
2018-07-17T11:09:57.676Z,9.30
2018-07-17T11:12:28.311Z,9.40
2018-07-17T11:14:59.038Z,8.17
2018-07-17T11:17:29.713Z,7.30
2018-07-17T11:20:00.074Z,6.10
2018-07-17T11:22:30.702Z,8.07
2018-07-17T11:25:01.407Z,5.73
2018-07-17T11:27:32.125Z,6.90
2018-07-17T11:30:02.832Z,4.17
2018-07-17T11:32:33.492Z,5.77
2018-07-17T11:35:04.293Z,6.67
2018-07-17T11:37:35.340Z,4.67
2018-07-17T11:40:06.659Z,3.63
2018-07-17T11:42:37.334Z,3.80
2018-07-17T11:45:08.104Z,3.20
2018-07-17T11:47:38.792Z,3.47
2018-07-17T11:50:09.546Z,4.17
2018-07-17T11:52:40.179Z,4.17
2018-07-17T11:55:10.861Z,5.77
2018-07-17T11:57:41.539Z,2.87
2018-07-17T12:00:12.290Z,3.20
2018-07-17T12:02:42.991Z,2.60
2018-07-17T12:05:13.775Z,2.77
2018-07-17T12:07:44.463Z,2.23
2018-07-17T12:10:15.105Z,4.60
2018-07-17T12:12:45.975Z,3.93
2018-07-17T12:15:16.641Z,4.80
2018-07-17T12:17:47.459Z,2.33
2018-07-17T12:20:18.219Z,4.60
2018-07-17T12:22:49.578Z,2.30
2018-07-17T12:25:20.311Z,2.23
2018-07-17T12:27:51.048Z,2.73
2018-07-17T12:30:21.700Z,3.07
2018-07-17T12:32:52.493Z,3.27
2018-07-17T12:35:23.193Z,2.93
2018-07-17T12:37:54.024Z,2.33
2018-07-17T12:40:24.774Z,3.63
2018-07-17T12:42:55.644Z,3.73
2018-07-17T12:45:26.492Z,2.70
2018-07-17T12:47:57.283Z,4.10
2018-07-17T12:50:27.974Z,2.30
2018-07-17T12:52:59.122Z,3.83
2018-07-17T12:55:29.863Z,6.30
2018-07-17T12:58:00.539Z,4.03
2018-07-17T13:00:31.207Z,2.63
2018-07-17T13:03:01.920Z,2.13
2018-07-17T13:05:32.778Z,4.40
2018-07-17T13:08:03.493Z,1.87
2018-07-17T13:10:34.167Z,6.37
2018-07-17T13:13:04.858Z,2.60
2018-07-17T13:15:35.585Z,2.27
2018-07-17T13:18:06.328Z,3.40
2018-07-17T13:20:37.060Z,1.80
2018-07-17T13:23:07.726Z,4.97
2018-07-17T13:25:38.483Z,5.50
2018-07-17T13:28:09.198Z,2.83
2018-07-17T13:30:39.906Z,3.33
2018-07-17T13:33:10.661Z,3.57
2018-07-17T13:35:41.338Z,4.73
2018-07-17T13:38:12.011Z,2.23
2018-07-17T13:40:42.706Z,5.33
2018-07-17T13:43:13.350Z,3.10
2018-07-17T13:45:44.057Z,2.30
2018-07-17T13:48:14.716Z,3.63
2018-07-17T13:50:45.427Z,2.30
2018-07-17T13:53:16.097Z,4.37
2018-07-17T13:55:46.784Z,4.57
2018-07-17T13:58:17.429Z,4.03
2018-07-17T14:00:48.223Z,4.37
2018-07-17T14:03:19.149Z,4.03
2018-07-17T14:05:49.859Z,1.90
2018-07-17T14:08:20.507Z,2.90
2018-07-17T14:10:51.315Z,1.87
2018-07-17T14:13:22.090Z,3.67
2018-07-17T14:15:52.820Z,3.33
2018-07-17T14:18:23.539Z,3.47
2018-07-17T14:20:54.263Z,2.60
2018-07-17T14:23:25.004Z,1.90
2018-07-17T14:25:55.719Z,2.97
2018-07-17T14:28:26.446Z,1.87
2018-07-17T14:30:57.139Z,3.80
2018-07-17T14:36:28.932Z,2.77
2018-07-17T14:38:59.672Z,3.30
2018-07-17T14:41:30.452Z,1.57
2018-07-17T14:44:01.104Z,4.03
2018-07-17T14:46:31.780Z,2.73
2018-07-17T14:49:02.504Z,4.17
2018-07-17T14:51:33.219Z,2.07
2018-07-17T14:54:04.190Z,1.73
2018-07-17T14:56:34.912Z,4.30
2018-07-17T14:59:05.757Z,3.07
2018-07-17T15:01:36.416Z,2.70
2018-07-17T15:04:07.160Z,3.27
2018-07-17T15:06:37.831Z,2.43
2018-07-17T15:09:09.751Z,3.67
2018-07-17T15:11:40.441Z,3.33
2018-07-17T15:14:11.159Z,3.60
2018-07-17T15:16:41.816Z,2.43
2018-07-17T15:19:12.486Z,2.87
2018-07-17T15:21:43.163Z,2.90
2018-07-17T15:24:13.853Z,6.53
2018-07-17T15:26:44.511Z,2.40
2018-07-17T15:29:15.217Z,5.43
2018-07-17T15:31:45.966Z,5.70
2018-07-17T15:34:16.604Z,3.37
2018-07-17T15:36:47.394Z,6.53
2018-07-17T15:39:18.069Z,5.30
2018-07-17T15:41:48.848Z,3.83
2018-07-17T15:44:19.512Z,2.87
2018-07-17T15:46:50.144Z,2.67
2018-07-17T15:49:20.792Z,6.43
2018-07-17T15:51:51.465Z,3.43
2018-07-17T15:54:21.775Z,3.33
2018-07-17T15:56:52.308Z,3.13
2018-07-17T15:59:23.097Z,6.03
2018-07-17T16:01:53.809Z,3.57
2018-07-17T16:04:24.513Z,2.70
2018-07-17T16:06:55.231Z,7.50
2018-07-17T16:09:25.906Z,4.73
2018-07-17T16:12:27.414Z,5.70
2018-07-17T16:14:58.375Z,7.07
2018-07-17T16:17:29.062Z,2.90
2018-07-17T16:23:10.716Z,3.57
2018-07-17T16:25:49.696Z,3.10
2018-07-17T16:28:21.111Z,5.50
2018-07-17T16:30:52.327Z,4.53
2018-07-17T16:33:23.103Z,5.63
2018-07-17T16:35:54.318Z,4.33
2018-07-17T16:38:26.078Z,4.63
2018-07-17T16:40:56.998Z,4.43
2018-07-17T16:43:28.006Z,5.23
2018-07-17T16:45:59.549Z,4.27
2018-07-17T16:48:31.486Z,4.30
2018-07-17T16:51:02.346Z,4.00
2018-07-17T16:53:33.102Z,5.73
2018-07-17T16:56:03.799Z,4.13
2018-07-17T16:58:34.401Z,7.20
2018-07-17T17:01:05.093Z,8.03
2018-07-17T17:03:35.766Z,8.03
2018-07-17T17:06:06.473Z,6.40
2018-07-17T17:08:37.142Z,6.03
2018-07-17T17:11:07.905Z,5.27
2018-07-17T17:13:38.531Z,6.93
2018-07-17T17:16:09.418Z,5.33
2018-07-17T17:18:40.064Z,6.80
2018-07-17T17:21:10.882Z,5.30
2018-07-17T17:23:41.617Z,4.80
2018-07-17T17:26:12.403Z,7.40
2018-07-17T17:28:42.994Z,6.27
2018-07-17T17:31:13.698Z,5.90
2018-07-17T17:33:44.340Z,6.03
2018-07-17T17:36:15.065Z,4.63
2018-07-17T17:38:46.076Z,5.30
2018-07-17T17:41:16.739Z,5.80
2018-07-17T17:43:47.403Z,5.13
2018-07-17T17:46:18.081Z,5.10
2018-07-17T17:48:48.810Z,5.57
2018-07-17T17:51:19.457Z,6.47
2018-07-17T17:53:50.103Z,5.87
2018-07-17T17:56:20.764Z,7.07
2018-07-17T17:58:51.415Z,7.70
2018-07-17T18:01:22.681Z,5.63
2018-07-17T18:03:53.334Z,6.30
2018-07-17T18:06:24.004Z,6.10
2018-07-17T18:08:54.682Z,6.07
2018-07-17T18:11:25.311Z,6.93
2018-07-17T18:13:55.946Z,6.90
2018-07-17T18:16:32.954Z,6.77
2018-07-17T18:19:03.672Z,6.00
2018-07-17T18:21:34.451Z,6.63
2018-07-17T18:24:05.167Z,6.93
2018-07-17T18:26:35.856Z,7.07
2018-07-17T18:29:06.816Z,5.93
2018-07-17T18:31:37.554Z,7.33
2018-07-17T18:34:08.490Z,6.50
2018-07-17T18:36:39.583Z,6.40
2018-07-17T18:39:10.296Z,6.07
2018-07-17T18:41:40.715Z,8.10
2018-07-17T18:44:11.103Z,9.17
2018-07-17T18:46:42.034Z,7.30
2018-07-17T18:49:12.917Z,6.17
2018-07-17T18:51:43.787Z,5.73
2018-07-17T18:54:14.677Z,5.37
2018-07-17T18:56:45.891Z,4.70
2018-07-17T18:59:47.691Z,4.00
2018-07-17T19:02:18.323Z,6.80
2018-07-17T19:04:49.035Z,5.80
2018-07-17T19:07:19.695Z,9.80
2018-07-17T19:09:50.384Z,8.47
2018-07-17T19:12:21.180Z,10.57
2018-07-17T19:14:51.774Z,10.40
2018-07-17T19:17:22.487Z,3.33
2018-07-17T19:19:53.121Z,7.47
2018-07-17T19:22:23.858Z,8.50
2018-07-17T19:24:54.515Z,8.43
2018-07-17T19:27:25.364Z,4.73
2018-07-17T19:29:56.149Z,7.23
2018-07-17T19:32:26.822Z,7.60
2018-07-17T19:34:57.484Z,5.57
2018-07-17T19:40:29.776Z,5.20
2018-07-17T19:43:00.499Z,4.00
2018-07-17T19:45:31.527Z,5.43
2018-07-17T19:48:02.225Z,3.73
2018-07-17T19:50:32.972Z,4.90
2018-07-17T19:53:03.699Z,4.63
2018-07-17T19:55:34.465Z,6.67
2018-07-17T19:58:05.236Z,5.23
2018-07-17T20:00:36.278Z,3.90
2018-07-17T20:03:07.053Z,5.70
2018-07-17T20:05:37.750Z,4.07
2018-07-17T20:08:08.933Z,4.87
2018-07-17T20:10:39.655Z,3.90
2018-07-17T20:13:10.404Z,4.27
2018-07-17T20:15:41.859Z,4.00
2018-07-17T20:18:12.630Z,2.73
2018-07-17T20:20:43.398Z,4.93
2018-07-17T20:23:14.070Z,5.07
2018-07-17T20:25:45.131Z,5.13
2018-07-17T20:28:15.836Z,4.23
2018-07-17T20:30:46.588Z,1.67
2018-07-17T20:33:17.886Z,4.10
2018-07-17T20:35:48.694Z,3.80
2018-07-17T20:38:19.489Z,5.20
2018-07-17T20:40:50.212Z,3.23
2018-07-17T20:43:21.065Z,4.40
2018-07-17T20:45:51.755Z,5.83
2018-07-17T20:48:22.383Z,7.60
2018-07-17T20:50:53.119Z,5.13
2018-07-17T20:53:23.905Z,6.33
2018-07-17T20:55:54.671Z,1.43
2018-07-17T20:58:25.407Z,2.60
2018-07-17T21:00:56.071Z,2.33
2018-07-17T21:03:26.728Z,3.67
2018-07-17T21:05:57.421Z,3.83
2018-07-17T21:08:27.823Z,4.47
2018-07-17T21:10:58.436Z,2.07
2018-07-17T21:13:29.121Z,3.47
2018-07-17T21:15:59.836Z,5.23
2018-07-17T21:18:30.482Z,6.73
2018-07-17T21:21:01.213Z,9.23
2018-07-17T21:23:31.961Z,4.93
2018-07-17T21:26:02.334Z,3.37
2018-07-17T21:28:32.865Z,2.57
2018-07-17T21:31:03.688Z,2.30
2018-07-17T21:33:34.712Z,2.20
2018-07-17T21:36:05.689Z,4.57
2018-07-17T21:38:36.477Z,1.40
2018-07-17T21:41:07.251Z,1.53
2018-07-17T21:43:37.890Z,5.73
2018-07-17T21:46:08.659Z,3.87
2018-07-17T21:48:48.117Z,3.60
2018-07-17T21:51:18.795Z,2.80
2018-07-17T21:53:50.730Z,3.97
2018-07-17T21:56:21.498Z,5.10
2018-07-17T21:58:52.268Z,3.43
2018-07-17T22:01:23.102Z,2.47
2018-07-17T22:03:53.751Z,2.97
2018-07-17T22:06:24.799Z,3.40
2018-07-17T22:08:55.534Z,2.80
2018-07-17T22:11:26.364Z,2.03
2018-07-17T22:13:57.079Z,2.13
2018-07-17T22:16:27.849Z,5.20
2018-07-17T22:18:58.592Z,3.83
2018-07-17T22:21:29.355Z,2.53
2018-07-17T22:24:00.136Z,1.60
2018-07-17T22:26:30.857Z,2.93
2018-07-17T22:29:01.606Z,2.77
2018-07-17T22:31:32.365Z,2.77
2018-07-17T22:34:03.121Z,4.53
2018-07-17T22:36:33.915Z,1.97
2018-07-17T22:39:06.278Z,4.07
2018-07-17T22:41:37.148Z,4.20
2018-07-17T22:44:08.231Z,2.10
2018-07-17T22:46:39.000Z,3.03
2018-07-17T22:49:09.789Z,2.60
2018-07-17T22:51:40.518Z,2.00
2018-07-17T22:54:11.276Z,4.70
2018-07-17T22:56:42.002Z,2.93
2018-07-17T22:59:12.789Z,2.40
2018-07-17T23:01:43.611Z,2.03
2018-07-17T23:04:14.332Z,4.43
2018-07-17T23:06:45.237Z,4.07
2018-07-17T23:09:15.973Z,2.87
2018-07-17T23:11:46.788Z,2.10
2018-07-17T23:14:17.527Z,2.97
2018-07-17T23:16:48.409Z,3.37
2018-07-17T23:19:19.284Z,4.07
2018-07-17T23:21:50.103Z,3.27
2018-07-17T23:24:20.803Z,4.50
2018-07-17T23:26:52.510Z,2.63
2018-07-17T23:29:23.274Z,2.60
2018-07-17T23:31:54.027Z,2.40
2018-07-17T23:34:24.772Z,3.03
2018-07-17T23:36:55.511Z,5.83
2018-07-17T23:39:26.329Z,4.23
2018-07-17T23:41:57.056Z,4.80
2018-07-17T23:44:27.752Z,4.03
2018-07-17T23:46:58.481Z,4.33
2018-07-17T23:49:34.403Z,5.07
2018-07-17T23:52:04.901Z,3.90
2018-07-17T23:54:35.558Z,3.83
2018-07-17T23:57:06.481Z,4.10
2018-07-17T23:59:37.224Z,2.97
